createdAt,value
2023-02-07T00:01:19.282Z,100.00
2023-02-07T00:03:49.442Z,100.00
2023-02-07T00:06:18.400Z,100.00
2023-02-07T00:08:46.995Z,100.00
2023-02-07T00:11:17.511Z,100.00
2023-02-07T00:13:46.072Z,100.00
2023-02-07T00:16:14.353Z,100.00
2023-02-07T00:18:42.471Z,100.00
2023-02-07T00:21:13.640Z,100.00
2023-02-07T00:23:42.222Z,100.00
2023-02-07T00:26:11.288Z,100.00
2023-02-07T00:28:39.640Z,100.00
2023-02-07T00:31:09.701Z,100.00
2023-02-07T00:33:38.082Z,100.00
2023-02-07T00:36:08.336Z,100.00
2023-02-07T00:38:38.150Z,100.00
2023-02-07T00:41:06.630Z,100.00
2023-02-07T00:43:34.744Z,100.00
2023-02-07T00:46:05.416Z,100.00
2023-02-07T00:48:34.545Z,100.00
2023-02-07T00:51:02.693Z,100.00
2023-02-07T00:53:30.944Z,100.00
2023-02-07T00:56:00.172Z,100.00
2023-02-07T00:58:28.138Z,100.00
2023-02-07T01:00:56.165Z,100.00
2023-02-07T01:03:24.111Z,100.00
2023-02-07T01:05:52.138Z,100.00
2023-02-07T01:08:20.009Z,100.00
2023-02-07T01:10:48.392Z,100.00
2023-02-07T01:13:17.863Z,100.00
2023-02-07T01:15:48.333Z,100.00
2023-02-07T01:18:17.433Z,100.00
2023-02-07T01:20:46.028Z,100.00
2023-02-07T01:23:15.390Z,100.00
2023-02-07T01:25:44.864Z,100.00
2023-02-07T01:28:13.334Z,100.00
2023-02-07T01:30:43.823Z,100.00
2023-02-07T01:33:12.141Z,100.00
2023-02-07T01:35:40.537Z,100.00
2023-02-07T01:38:08.631Z,100.00
2023-02-07T01:40:38.575Z,100.00
2023-02-07T01:43:08.040Z,100.00
2023-02-07T01:45:38.756Z,100.00
2023-02-07T01:48:13.787Z,100.00
2023-02-07T01:50:47.274Z,100.00
2023-02-07T01:53:18.534Z,100.00
2023-02-07T01:55:48.682Z,100.00
2023-02-07T01:58:17.580Z,100.00
2023-02-07T02:00:46.566Z,100.00
2023-02-07T02:03:15.882Z,100.00
2023-02-07T02:05:45.063Z,100.00
2023-02-07T02:08:13.117Z,100.00
2023-02-07T02:11:01.617Z,100.00
2023-02-07T02:13:37.049Z,100.00
2023-02-07T02:16:15.648Z,100.00
2023-02-07T02:19:09.535Z,100.00
2023-02-07T02:22:24.650Z,100.00
2023-02-07T02:25:25.156Z,100.00
2023-02-07T02:28:37.125Z,100.00
2023-02-07T02:31:31.608Z,100.00
2023-02-07T02:34:07.826Z,100.00
2023-02-07T02:36:43.170Z,100.00
2023-02-07T02:39:18.255Z,100.00
2023-02-07T02:41:55.704Z,100.00
2023-02-07T02:44:30.411Z,100.00
2023-02-07T02:47:04.022Z,100.00
2023-02-07T02:49:35.600Z,100.00
2023-02-07T02:52:03.648Z,100.00
2023-02-07T02:54:33.814Z,100.00
2023-02-07T02:57:30.870Z,100.00
2023-02-07T03:00:23.400Z,100.00
2023-02-07T03:03:01.721Z,100.00
2023-02-07T03:05:44.193Z,100.00
2023-02-07T03:08:20.852Z,100.00
2023-02-07T03:10:57.128Z,100.00
2023-02-07T03:13:31.027Z,100.00
2023-02-07T03:16:08.841Z,100.00
2023-02-07T03:18:46.760Z,100.00
2023-02-07T03:21:23.026Z,100.00
2023-02-07T03:23:53.800Z,100.00
2023-02-07T03:26:24.543Z,100.00
2023-02-07T03:28:56.450Z,100.00
2023-02-07T03:31:27.935Z,100.00
2023-02-07T03:34:03.463Z,100.00
2023-02-07T03:36:37.962Z,100.00
2023-02-07T03:39:06.124Z,100.00
2023-02-07T03:41:39.692Z,100.00
2023-02-07T03:44:09.965Z,100.00
2023-02-07T03:46:39.147Z,100.00
2023-02-07T03:49:07.781Z,100.00
2023-02-07T03:51:37.690Z,100.00
2023-02-07T03:54:05.667Z,100.00
2023-02-07T03:56:33.595Z,100.00
2023-02-07T03:59:01.466Z,100.00
2023-02-07T04:01:29.747Z,100.00
2023-02-07T04:03:57.865Z,100.00
2023-02-07T04:06:25.748Z,100.00
2023-02-07T04:08:55.082Z,100.00
2023-02-07T04:11:22.976Z,100.00
2023-02-07T04:13:50.895Z,100.00
2023-02-07T04:16:18.830Z,100.00
2023-02-07T04:18:46.971Z,100.00
2023-02-07T04:21:14.919Z,100.00
2023-02-07T04:23:42.874Z,100.00
2023-02-07T04:26:12.154Z,100.00
2023-02-07T04:28:40.269Z,100.00
2023-02-07T04:31:08.242Z,100.00
2023-02-07T04:33:36.185Z,100.00
2023-02-07T04:36:06.014Z,100.00
2023-02-07T04:38:34.412Z,100.00
2023-02-07T04:41:04.391Z,100.00
2023-02-07T04:43:34.360Z,100.00
2023-02-07T04:46:02.728Z,100.00
2023-02-07T04:48:30.993Z,100.00
2023-02-07T04:50:59.064Z,100.00
2023-02-07T04:53:26.935Z,100.00
2023-02-07T04:55:55.324Z,100.00
2023-02-07T04:58:23.631Z,100.00
2023-02-07T05:00:53.408Z,100.00
2023-02-07T05:03:21.372Z,100.00
2023-02-07T05:05:49.482Z,100.00
2023-02-07T05:08:17.405Z,100.00
2023-02-07T05:10:45.678Z,100.00
2023-02-07T05:13:13.822Z,100.00
2023-02-07T05:15:41.610Z,100.00
2023-02-07T05:18:10.881Z,100.00
2023-02-07T05:20:38.696Z,100.00
2023-02-07T05:23:06.708Z,100.00
2023-02-07T05:25:34.655Z,100.00
2023-02-07T05:28:02.582Z,100.00
2023-02-07T05:30:30.707Z,100.00
2023-02-07T05:33:06.924Z,100.00
2023-02-07T05:35:38.326Z,100.00
2023-02-07T05:38:08.696Z,100.00
2023-02-07T05:40:37.592Z,100.00
2023-02-07T05:43:06.072Z,100.00
2023-02-07T05:45:34.046Z,100.00
2023-02-07T05:48:02.579Z,100.00
2023-02-07T05:50:31.063Z,100.00
2023-02-07T05:53:09.148Z,100.00
2023-02-07T05:55:37.867Z,100.00
2023-02-07T05:58:06.296Z,100.00
2023-02-07T06:00:34.462Z,100.00
2023-02-07T06:03:02.290Z,100.00
2023-02-07T06:05:32.044Z,100.00
2023-02-07T06:08:00.485Z,100.00
2023-02-07T06:10:30.016Z,100.00
2023-02-07T06:12:58.175Z,100.00
2023-02-07T06:15:26.125Z,100.00
2023-02-07T06:17:54.131Z,100.00
2023-02-07T06:20:22.734Z,100.00
2023-02-07T06:22:50.761Z,100.00
2023-02-07T06:25:21.023Z,100.00
2023-02-07T06:27:50.568Z,100.00
2023-02-07T06:30:19.273Z,100.00
2023-02-07T06:32:47.145Z,100.00
2023-02-07T06:35:15.056Z,100.00
2023-02-07T06:37:42.834Z,100.00
2023-02-07T06:40:11.653Z,100.00
2023-02-07T06:42:39.530Z,100.00
2023-02-07T06:45:10.015Z,100.00
2023-02-07T06:47:37.947Z,100.00
2023-02-07T06:50:09.048Z,100.00
2023-02-07T06:52:37.524Z,100.00
2023-02-07T06:55:05.674Z,100.00
2023-02-07T06:57:33.557Z,100.00
2023-02-07T07:00:01.470Z,100.00
2023-02-07T07:02:31.056Z,100.00
2023-02-07T07:04:59.084Z,100.00
2023-02-07T07:07:27.036Z,100.00
2023-02-07T07:09:54.915Z,100.00
2023-02-07T07:12:22.796Z,100.00
2023-02-07T07:14:50.736Z,100.00
2023-02-07T07:17:18.648Z,100.00
2023-02-07T07:19:48.581Z,100.00
2023-02-07T07:22:17.516Z,100.00
2023-02-07T07:24:47.067Z,100.00
2023-02-07T07:27:15.620Z,100.00
2023-02-07T07:29:43.780Z,100.00
2023-02-07T07:32:17.790Z,100.00
2023-02-07T07:34:55.163Z,100.00
2023-02-07T07:37:22.919Z,100.00
2023-02-07T07:39:50.760Z,100.00
2023-02-07T07:42:19.161Z,100.00
2023-02-07T07:44:57.090Z,100.00
2023-02-07T07:47:27.921Z,100.00
2023-02-07T07:49:57.743Z,100.00
2023-02-07T07:52:27.316Z,100.00
2023-02-07T07:54:55.634Z,100.00
2023-02-07T07:57:28.050Z,100.00
2023-02-07T07:59:56.198Z,100.00
2023-02-07T08:02:24.559Z,100.00
2023-02-07T08:04:53.057Z,100.00
2023-02-07T08:07:22.350Z,100.00
2023-02-07T08:09:50.358Z,100.00
2023-02-07T08:12:18.184Z,100.00
2023-02-07T08:14:46.119Z,100.00
2023-02-07T08:17:13.991Z,100.00
2023-02-07T08:19:42.100Z,100.00
2023-02-07T08:22:10.056Z,100.00
2023-02-07T08:24:39.327Z,100.00
2023-02-07T08:27:07.272Z,100.00
2023-02-07T08:29:35.327Z,100.00
2023-02-07T08:32:03.579Z,100.00
2023-02-07T08:34:37.440Z,100.00
2023-02-07T08:37:06.885Z,100.00
2023-02-07T08:39:35.602Z,100.00
2023-02-07T08:42:08.238Z,100.00
2023-02-07T08:44:37.317Z,100.00
2023-02-07T08:47:05.629Z,100.00
2023-02-07T08:49:33.468Z,100.00
2023-02-07T08:52:01.399Z,100.00
2023-02-07T08:54:29.236Z,100.00
2023-02-07T08:56:57.992Z,100.00
2023-02-07T08:59:27.618Z,100.00
2023-02-07T09:01:55.914Z,100.00
2023-02-07T09:04:23.787Z,100.00
2023-02-07T09:06:51.771Z,100.00
2023-02-07T09:09:19.824Z,100.00
2023-02-07T09:11:47.876Z,100.00
2023-02-07T09:14:15.816Z,100.00
2023-02-07T09:16:45.128Z,100.00
2023-02-07T09:19:13.114Z,100.00
2023-02-07T09:21:40.867Z,100.00
2023-02-07T09:24:08.960Z,100.00
2023-02-07T09:26:38.939Z,100.00
2023-02-07T09:29:07.696Z,100.00
2023-02-07T09:31:36.110Z,100.00
2023-02-07T09:34:06.000Z,100.00
2023-02-07T09:36:34.067Z,100.00
2023-02-07T09:39:03.109Z,100.00
2023-02-07T09:41:40.041Z,100.00
2023-02-07T09:44:16.253Z,100.00
2023-02-07T09:46:49.227Z,100.00
2023-02-07T09:49:30.436Z,100.00
2023-02-07T09:51:59.551Z,100.00
2023-02-07T09:54:30.957Z,100.00
2023-02-07T09:57:02.966Z,100.00
2023-02-07T09:59:41.963Z,100.00
2023-02-07T10:02:19.393Z,100.00
2023-02-07T10:04:52.433Z,100.00
2023-02-07T10:07:20.337Z,100.00
2023-02-07T10:09:48.418Z,100.00
2023-02-07T10:12:42.825Z,100.00
2023-02-07T10:15:30.563Z,100.00
2023-02-07T10:18:18.004Z,100.00
2023-02-07T10:20:56.386Z,100.00
2023-02-07T10:23:38.856Z,100.00
2023-02-07T10:26:17.571Z,100.00
2023-02-07T10:29:17.588Z,100.00
2023-02-07T10:31:49.095Z,100.00
2023-02-07T10:34:20.186Z,100.00
2023-02-07T10:36:52.770Z,100.00
2023-02-07T10:39:26.638Z,99.87
2023-02-07T10:41:57.530Z,98.88
2023-02-07T10:44:29.509Z,97.73
2023-02-07T10:47:02.097Z,98.88
2023-02-07T10:49:32.144Z,97.23
2023-02-07T10:52:07.546Z,97.67
2023-02-07T10:54:52.088Z,96.33
2023-02-07T10:57:22.144Z,95.63
2023-02-07T10:59:50.797Z,93.60
2023-02-07T11:02:44.806Z,92.75
2023-02-07T11:05:38.705Z,92.47
2023-02-07T11:08:22.821Z,91.90
2023-02-07T11:10:53.490Z,91.77
2023-02-07T11:13:23.652Z,91.17
2023-02-07T11:15:53.207Z,91.42
2023-02-07T11:18:33.747Z,90.15
2023-02-07T11:21:01.652Z,88.33
2023-02-07T11:23:31.153Z,91.30
2023-02-07T11:25:59.489Z,91.69
2023-02-07T11:28:30.655Z,92.71
2023-02-07T11:31:03.215Z,91.49
2023-02-07T11:33:34.055Z,87.78
2023-02-07T11:36:11.326Z,87.72
2023-02-07T11:38:46.913Z,87.37
2023-02-07T11:41:19.215Z,85.90
2023-02-07T11:43:59.277Z,81.49
2023-02-07T11:46:43.428Z,81.51
2023-02-07T11:49:25.220Z,78.24
2023-02-07T11:51:55.036Z,74.42
2023-02-07T11:54:25.333Z,73.09
2023-02-07T11:56:55.686Z,72.10
2023-02-07T11:59:28.023Z,71.46
2023-02-07T12:01:59.051Z,70.34
2023-02-07T12:04:32.002Z,70.90
2023-02-07T12:07:04.977Z,67.01
2023-02-07T12:09:40.397Z,67.10
2023-02-07T12:12:17.082Z,70.27
2023-02-07T12:14:51.623Z,68.72
2023-02-07T12:17:24.521Z,66.90
2023-02-07T12:19:56.807Z,70.57
2023-02-07T12:22:29.764Z,67.77
2023-02-07T12:25:05.652Z,68.17
2023-02-07T12:27:40.554Z,64.97
2023-02-07T12:30:17.771Z,62.23
2023-02-07T12:32:52.374Z,67.96
2023-02-07T12:35:25.997Z,66.03
2023-02-07T12:38:01.953Z,63.84
2023-02-07T12:40:36.556Z,59.56
2023-02-07T12:43:12.026Z,62.21
2023-02-07T12:46:05.901Z,61.10
2023-02-07T12:49:00.981Z,59.79
2023-02-07T12:51:39.388Z,62.35
2023-02-07T12:54:21.060Z,60.82
2023-02-07T12:56:59.557Z,61.23
2023-02-07T12:59:40.485Z,60.63
2023-02-07T13:02:24.941Z,59.12
2023-02-07T13:05:22.416Z,60.38
2023-02-07T13:08:00.299Z,60.34
2023-02-07T13:10:38.764Z,59.06
2023-02-07T13:13:18.897Z,58.50
2023-02-07T13:15:53.818Z,59.64
2023-02-07T13:18:33.472Z,62.46
2023-02-07T13:21:09.692Z,57.11
2023-02-07T13:23:42.264Z,58.97
2023-02-07T13:26:13.731Z,65.70
2023-02-07T13:28:46.634Z,67.62
2023-02-07T13:31:19.266Z,66.84
2023-02-07T13:33:49.557Z,63.60
2023-02-07T13:36:20.587Z,63.76
2023-02-07T13:39:08.979Z,64.78
2023-02-07T13:41:49.847Z,68.83
2023-02-07T13:44:25.055Z,70.89
2023-02-07T13:47:25.305Z,70.55
2023-02-07T13:49:58.502Z,68.78
2023-02-07T13:52:33.895Z,68.58
2023-02-07T13:55:16.360Z,66.67
2023-02-07T13:58:03.282Z,65.92
2023-02-07T14:00:38.625Z,63.82
2023-02-07T14:03:09.236Z,60.01
2023-02-07T14:05:42.636Z,60.36
2023-02-07T14:08:24.873Z,66.45
2023-02-07T14:10:54.160Z,61.90
2023-02-07T14:13:25.515Z,60.60
2023-02-07T14:16:07.984Z,59.91
2023-02-07T14:18:45.677Z,59.07
2023-02-07T14:21:38.565Z,60.96
2023-02-07T14:24:20.099Z,59.42
2023-02-07T14:26:57.365Z,58.97
2023-02-07T14:30:01.775Z,59.43
2023-02-07T14:32:33.960Z,60.12
2023-02-07T14:35:05.958Z,62.14
2023-02-07T14:37:46.286Z,59.77
2023-02-07T14:40:22.533Z,56.60
2023-02-07T14:43:00.290Z,57.80
2023-02-07T14:45:31.659Z,58.44
2023-02-07T14:48:01.598Z,59.20
2023-02-07T14:50:33.705Z,59.04
2023-02-07T14:53:04.554Z,59.38
2023-02-07T14:55:36.561Z,57.86
2023-02-07T14:58:08.665Z,58.08
2023-02-07T15:00:45.166Z,56.69
2023-02-07T15:03:17.744Z,56.12
2023-02-07T15:05:52.167Z,58.64
2023-02-07T15:08:22.155Z,57.21
2023-02-07T15:10:56.949Z,59.02
2023-02-07T15:13:29.558Z,60.21
2023-02-07T15:16:00.725Z,61.44
2023-02-07T15:18:33.430Z,63.06
2023-02-07T15:21:02.702Z,66.18
2023-02-07T15:23:32.814Z,65.37
2023-02-07T15:26:03.236Z,65.29
2023-02-07T15:28:32.366Z,65.60
2023-02-07T15:31:03.218Z,67.69
2023-02-07T15:33:36.861Z,69.74
2023-02-07T15:36:06.759Z,71.68
2023-02-07T15:38:34.901Z,73.61
2023-02-07T15:41:04.666Z,75.17
2023-02-07T15:43:34.735Z,76.32
2023-02-07T15:46:07.383Z,77.64
2023-02-07T15:48:48.357Z,77.98
2023-02-07T15:51:19.243Z,79.01
2023-02-07T15:53:51.306Z,80.90
2023-02-07T15:56:20.121Z,81.70
2023-02-07T15:58:49.631Z,82.12
2023-02-07T16:01:24.415Z,82.95
2023-02-07T16:03:56.880Z,83.71
2023-02-07T16:06:27.687Z,84.16
2023-02-07T16:08:58.522Z,86.06
2023-02-07T16:11:41.205Z,86.74
2023-02-07T16:14:22.136Z,87.17
2023-02-07T16:16:52.296Z,88.36
2023-02-07T16:19:22.232Z,87.81
2023-02-07T16:21:53.776Z,88.05
2023-02-07T16:24:27.622Z,88.61
2023-02-07T16:26:57.232Z,89.45
2023-02-07T16:29:27.293Z,91.53
2023-02-07T16:31:56.176Z,92.74
2023-02-07T16:34:25.672Z,93.64
2023-02-07T16:36:55.209Z,94.30
2023-02-07T16:39:24.329Z,95.32
2023-02-07T16:41:56.045Z,96.08
2023-02-07T16:44:25.544Z,96.54
2023-02-07T16:46:53.516Z,97.30
2023-02-07T16:49:23.269Z,95.76
2023-02-07T16:51:52.818Z,96.58
2023-02-07T16:54:21.029Z,97.62
2023-02-07T16:56:51.463Z,97.98
2023-02-07T16:59:21.515Z,98.60
2023-02-07T17:01:51.353Z,99.18
2023-02-07T17:04:20.039Z,99.57
2023-02-07T17:06:48.843Z,99.82
2023-02-07T17:09:19.848Z,100.00
2023-02-07T17:11:48.092Z,100.00
2023-02-07T17:14:16.386Z,100.00
2023-02-07T17:16:44.469Z,100.00
2023-02-07T17:19:14.673Z,100.00
2023-02-07T17:21:43.060Z,100.00
2023-02-07T17:24:11.962Z,100.00
2023-02-07T17:26:44.286Z,100.00
2023-02-07T17:29:13.561Z,100.00
2023-02-07T17:31:41.612Z,100.00
2023-02-07T17:34:10.300Z,100.00
2023-02-07T17:36:40.123Z,100.00
2023-02-07T17:39:08.815Z,100.00
2023-02-07T17:41:36.683Z,100.00
2023-02-07T17:44:06.441Z,100.00
2023-02-07T17:46:34.382Z,100.00
2023-02-07T17:49:02.368Z,100.00
2023-02-07T17:51:30.306Z,100.00
2023-02-07T17:53:58.345Z,100.00
2023-02-07T17:56:28.809Z,100.00
2023-02-07T17:58:59.445Z,100.00
2023-02-07T18:01:30.740Z,100.00
2023-02-07T18:03:59.345Z,100.00
2023-02-07T18:06:29.458Z,100.00
2023-02-07T18:08:58.531Z,100.00
2023-02-07T18:11:27.187Z,100.00
2023-02-07T18:13:56.943Z,100.00
2023-02-07T18:16:27.449Z,100.00
2023-02-07T18:18:58.108Z,100.00
2023-02-07T18:21:26.894Z,100.00
2023-02-07T18:23:55.076Z,100.00
2023-02-07T18:26:23.873Z,100.00
2023-02-07T18:28:51.868Z,100.00
2023-02-07T18:31:22.263Z,100.00
2023-02-07T18:33:51.329Z,100.00
2023-02-07T18:36:22.720Z,100.00
2023-02-07T18:38:50.969Z,100.00
2023-02-07T18:41:23.216Z,100.00
2023-02-07T18:43:51.992Z,100.00
2023-02-07T18:46:21.696Z,100.00
2023-02-07T18:48:54.488Z,100.00
2023-02-07T18:51:25.714Z,100.00
2023-02-07T18:53:54.948Z,100.00
2023-02-07T18:56:25.165Z,100.00
2023-02-07T18:58:56.773Z,100.00
2023-02-07T19:01:26.387Z,100.00
2023-02-07T19:03:56.334Z,100.00
2023-02-07T19:06:27.408Z,100.00
2023-02-07T19:08:55.884Z,100.00
2023-02-07T19:11:24.172Z,100.00
2023-02-07T19:13:52.032Z,100.00
2023-02-07T19:16:21.947Z,100.00
2023-02-07T19:18:50.657Z,100.00
2023-02-07T19:21:23.694Z,100.00
2023-02-07T19:23:53.380Z,100.00
2023-02-07T19:26:21.596Z,100.00
2023-02-07T19:28:49.461Z,100.00
2023-02-07T19:31:20.301Z,100.00
2023-02-07T19:33:50.611Z,100.00
2023-02-07T19:36:22.216Z,100.00
2023-02-07T19:38:50.299Z,100.00
2023-02-07T19:41:19.628Z,100.00
2023-02-07T19:43:47.687Z,100.00
2023-02-07T19:46:16.486Z,100.00
2023-02-07T19:48:44.607Z,100.00
2023-02-07T19:51:15.948Z,100.00
2023-02-07T19:53:45.128Z,100.00
2023-02-07T19:56:13.892Z,100.00
2023-02-07T19:58:44.627Z,100.00
2023-02-07T20:01:12.749Z,100.00
2023-02-07T20:03:41.399Z,100.00
2023-02-07T20:06:12.312Z,100.00
2023-02-07T20:08:41.802Z,100.00
2023-02-07T20:11:12.213Z,100.00
2023-02-07T20:13:44.447Z,100.00
2023-02-07T20:16:14.626Z,100.00
2023-02-07T20:18:42.489Z,100.00
2023-02-07T20:21:14.508Z,100.00
2023-02-07T20:23:44.262Z,100.00
2023-02-07T20:26:14.877Z,100.00
2023-02-07T20:28:46.221Z,100.00
2023-02-07T20:31:17.018Z,100.00
2023-02-07T20:33:45.293Z,100.00
2023-02-07T20:36:15.154Z,100.00
2023-02-07T20:38:44.974Z,100.00
2023-02-07T20:41:15.925Z,100.00
2023-02-07T20:43:45.062Z,100.00
2023-02-07T20:46:17.405Z,100.00
2023-02-07T20:48:45.305Z,100.00
2023-02-07T20:51:13.273Z,100.00
2023-02-07T20:53:42.804Z,100.00
2023-02-07T20:56:13.280Z,100.00
2023-02-07T20:58:43.348Z,100.00
2023-02-07T21:01:13.689Z,100.00
2023-02-07T21:03:42.098Z,100.00
2023-02-07T21:06:10.474Z,100.00
2023-02-07T21:08:39.654Z,100.00
2023-02-07T21:11:09.463Z,100.00
2023-02-07T21:13:38.243Z,100.00
2023-02-07T21:16:08.171Z,100.00
2023-02-07T21:18:37.732Z,100.00
2023-02-07T21:21:09.382Z,100.00
2023-02-07T21:23:38.543Z,100.00
2023-02-07T21:26:07.896Z,100.00
2023-02-07T21:28:36.520Z,100.00
2023-02-07T21:31:06.000Z,100.00
2023-02-07T21:33:33.891Z,100.00
2023-02-07T21:36:09.533Z,100.00
2023-02-07T21:38:38.189Z,100.00
2023-02-07T21:41:07.625Z,100.00
2023-02-07T21:43:36.451Z,100.00
2023-02-07T21:46:09.075Z,100.00
2023-02-07T21:48:39.155Z,100.00
2023-02-07T21:51:10.368Z,100.00
2023-02-07T21:53:39.419Z,100.00
2023-02-07T21:56:11.273Z,100.00
2023-02-07T21:58:39.816Z,100.00
2023-02-07T22:01:10.359Z,100.00
2023-02-07T22:03:39.822Z,100.00
2023-02-07T22:06:10.440Z,100.00
2023-02-07T22:08:39.801Z,100.00
2023-02-07T22:11:10.637Z,100.00
2023-02-07T22:13:40.449Z,100.00
2023-02-07T22:16:09.560Z,100.00
2023-02-07T22:18:37.630Z,100.00
2023-02-07T22:21:07.468Z,100.00
2023-02-07T22:23:36.810Z,100.00
2023-02-07T22:26:04.987Z,100.00
2023-02-07T22:28:33.563Z,100.00
2023-02-07T22:31:02.113Z,100.00
2023-02-07T22:33:30.405Z,100.00
2023-02-07T22:35:58.235Z,100.00
2023-02-07T22:38:26.378Z,100.00
2023-02-07T22:40:55.898Z,100.00
2023-02-07T22:43:23.842Z,100.00
2023-02-07T22:45:51.757Z,100.00
2023-02-07T22:48:19.607Z,100.00
2023-02-07T22:50:47.724Z,100.00
2023-02-07T22:53:15.702Z,100.00
2023-02-07T22:55:43.585Z,100.00
2023-02-07T22:58:15.564Z,100.00
2023-02-07T23:00:43.792Z,100.00
2023-02-07T23:03:11.726Z,100.00
2023-02-07T23:05:40.401Z,100.00
2023-02-07T23:08:08.313Z,100.00
2023-02-07T23:10:36.432Z,100.00
2023-02-07T23:13:05.260Z,100.00
2023-02-07T23:15:36.416Z,100.00
2023-02-07T23:18:05.067Z,100.00
2023-02-07T23:20:33.193Z,100.00
2023-02-07T23:23:01.195Z,100.00
2023-02-07T23:25:29.292Z,100.00
2023-02-07T23:27:57.342Z,100.00
2023-02-07T23:30:25.457Z,100.00
2023-02-07T23:32:54.777Z,100.00
2023-02-07T23:35:22.906Z,100.00
2023-02-07T23:37:50.850Z,100.00
2023-02-07T23:40:18.825Z,100.00
2023-02-07T23:42:46.724Z,100.00
2023-02-07T23:45:14.679Z,100.00
2023-02-07T23:47:42.576Z,100.00
2023-02-07T23:50:12.531Z,100.00
2023-02-07T23:52:40.521Z,100.00
2023-02-07T23:55:09.027Z,100.00
2023-02-07T23:57:36.883Z,100.00
